createdAt,value
2017-12-05T00:00:05.895Z,51
2017-12-05T00:15:04.960Z,51
2017-12-05T00:30:05.003Z,51
2017-12-05T00:45:07.645Z,50
2017-12-05T01:00:06.282Z,50
2017-12-05T01:15:05.015Z,50
2017-12-05T01:30:04.856Z,50
2017-12-05T01:45:04.602Z,50
2017-12-05T02:00:04.487Z,51
2017-12-05T02:15:04.341Z,50
2017-12-05T02:30:05.783Z,50
2017-12-05T02:45:06.040Z,50
2017-12-05T03:00:08.154Z,49
2017-12-05T03:15:05.164Z,48
2017-12-05T03:30:04.980Z,52
2017-12-05T03:45:04.720Z,51
2017-12-05T04:00:06.361Z,51
2017-12-05T04:15:04.910Z,52
2017-12-05T04:30:04.556Z,52
2017-12-05T04:45:11.885Z,51
2017-12-05T05:00:07.671Z,51
2017-12-05T05:15:04.488Z,56
2017-12-05T05:30:04.766Z,55
2017-12-05T05:45:06.409Z,56
2017-12-05T06:00:05.870Z,62
2017-12-05T06:15:05.752Z,61
2017-12-05T06:30:04.825Z,58
2017-12-05T06:45:06.300Z,58
2017-12-05T07:00:06.279Z,63
2017-12-05T07:15:05.685Z,57
2017-12-05T07:30:04.286Z,58
2017-12-05T07:45:05.234Z,61
2017-12-05T08:00:05.102Z,68
2017-12-05T08:15:04.608Z,66
2017-12-05T08:30:07.804Z,62
2017-12-05T08:45:08.275Z,62
2017-12-05T09:00:05.642Z,57
2017-12-05T09:15:05.041Z,56
2017-12-05T09:30:08.387Z,51
2017-12-05T09:45:06.400Z,50
2017-12-05T10:00:07.456Z,51
2017-12-05T10:15:04.979Z,52
2017-12-05T10:30:04.590Z,50
2017-12-05T10:45:04.517Z,51
2017-12-05T11:00:05.137Z,52
2017-12-05T11:15:04.788Z,51
2017-12-05T11:30:05.471Z,51
2017-12-05T11:45:11.681Z,51
2017-12-05T12:00:04.974Z,51
2017-12-05T12:15:07.638Z,52
2017-12-05T12:30:06.424Z,54
2017-12-05T12:45:04.968Z,52
2017-12-05T13:00:05.216Z,52
2017-12-05T13:15:04.936Z,51
2017-12-05T13:30:04.720Z,52
2017-12-05T13:45:06.468Z,52
2017-12-05T14:00:04.582Z,51
2017-12-05T14:15:05.314Z,50
2017-12-05T14:30:08.172Z,57
2017-12-05T14:45:07.951Z,57
2017-12-05T15:00:04.988Z,55
2017-12-05T15:15:05.057Z,66
2017-12-05T15:30:04.868Z,59
2017-12-05T15:45:05.198Z,59
2017-12-05T16:00:05.172Z,61
2017-12-05T16:15:04.563Z,66
2017-12-05T16:30:05.264Z,61
2017-12-05T16:45:05.147Z,59
2017-12-05T17:00:05.014Z,61
2017-12-05T17:15:05.521Z,70
2017-12-05T17:30:04.701Z,61
2017-12-05T17:45:20.543Z,60
2017-12-05T18:00:05.716Z,59
2017-12-05T18:15:08.193Z,59
2017-12-05T18:30:11.492Z,59
2017-12-05T18:45:04.946Z,56
2017-12-05T19:00:04.785Z,58
2017-12-05T19:15:05.262Z,60
2017-12-05T19:30:05.528Z,59
2017-12-05T19:45:04.389Z,57
2017-12-05T20:00:06.293Z,57
2017-12-05T20:15:07.856Z,60
2017-12-05T20:30:04.542Z,58
2017-12-05T20:45:04.467Z,53
2017-12-05T21:00:04.339Z,54
2017-12-05T21:15:05.865Z,54
2017-12-05T21:30:04.960Z,54
2017-12-05T21:45:04.904Z,53
2017-12-05T22:00:05.092Z,53
2017-12-05T22:15:04.867Z,55
2017-12-05T22:30:07.804Z,55
2017-12-05T22:45:07.864Z,54
2017-12-05T23:00:04.830Z,54
2017-12-05T23:15:06.264Z,54
2017-12-05T23:30:08.196Z,55
2017-12-05T23:45:05.136Z,55
